createdAt,value
2018-01-05T00:00:07.588Z,14.97
2018-01-05T00:02:36.184Z,10.83
2018-01-05T00:05:08.128Z,10.27
2018-01-05T00:07:36.476Z,11.97
2018-01-05T00:10:06.385Z,11.80
2018-01-05T00:12:34.669Z,12.10
2018-01-05T00:15:06.244Z,14.57
2018-01-05T00:17:34.524Z,8.20
2018-01-05T00:20:07.476Z,12.93
2018-01-05T00:22:35.786Z,15.70
2018-01-05T00:25:07.408Z,19.23
2018-01-05T00:27:35.684Z,14.10
2018-01-05T00:30:07.036Z,13.23
2018-01-05T00:32:35.430Z,12.57
2018-01-05T00:35:07.543Z,13.03
2018-01-05T00:37:35.813Z,15.30
2018-01-05T00:40:06.419Z,9.90
2018-01-05T00:42:34.695Z,14.40
2018-01-05T00:45:09.936Z,10.53
2018-01-05T00:47:38.240Z,14.27
2018-01-05T00:50:06.539Z,13.47
2018-01-05T00:52:34.831Z,12.87
2018-01-05T00:55:10.208Z,13.70
2018-01-05T00:57:38.488Z,15.77
2018-01-05T01:00:06.779Z,16.53
2018-01-05T01:02:35.281Z,15.87
2018-01-05T01:05:07.402Z,11.23
2018-01-05T01:07:35.666Z,14.17
2018-01-05T01:10:07.976Z,12.83
2018-01-05T01:12:36.273Z,11.30
2018-01-05T01:15:06.421Z,14.13
2018-01-05T01:17:34.699Z,15.90
2018-01-05T01:20:06.889Z,11.47
2018-01-05T01:22:35.178Z,8.70
2018-01-05T01:25:06.464Z,13.43
2018-01-05T01:27:34.729Z,13.60
2018-01-05T01:30:09.998Z,15.77
2018-01-05T01:32:38.279Z,13.80
2018-01-05T01:35:06.570Z,14.53
2018-01-05T01:37:34.894Z,13.47
2018-01-05T01:40:06.455Z,17.97
2018-01-05T01:42:34.726Z,13.70
2018-01-05T01:45:06.793Z,11.47
2018-01-05T01:47:35.075Z,14.03
2018-01-05T01:50:07.522Z,14.37
2018-01-05T01:52:35.832Z,14.30
2018-01-05T01:55:07.184Z,10.03
2018-01-05T01:57:35.733Z,13.07
2018-01-05T02:00:07.889Z,15.00
2018-01-05T02:02:36.186Z,9.90
2018-01-05T02:05:07.404Z,11.37
2018-01-05T02:07:35.714Z,12.63
2018-01-05T02:10:06.787Z,16.47
2018-01-05T02:12:35.058Z,15.73
2018-01-05T02:15:06.796Z,13.13
2018-01-05T02:17:35.070Z,13.30
2018-01-05T02:20:08.993Z,11.23
2018-01-05T02:22:37.273Z,13.27
2018-01-05T02:25:06.916Z,15.00
2018-01-05T02:27:35.445Z,12.80
2018-01-05T02:30:08.207Z,14.20
2018-01-05T02:32:36.500Z,11.40
2018-01-05T02:35:09.764Z,13.27
2018-01-05T02:37:38.033Z,13.73
2018-01-05T02:40:07.270Z,14.77
2018-01-05T02:42:36.649Z,12.40
2018-01-05T02:45:05.946Z,14.30
2018-01-05T02:47:34.256Z,12.27
2018-01-05T02:50:06.337Z,12.17
2018-01-05T02:52:35.254Z,18.47
2018-01-05T02:55:07.404Z,12.77
2018-01-05T02:57:35.742Z,13.50
2018-01-05T03:00:05.861Z,14.57
2018-01-05T03:02:34.154Z,18.40
2018-01-05T03:05:05.589Z,11.13
2018-01-05T03:07:34.066Z,16.50
2018-01-05T03:10:05.492Z,13.10
2018-01-05T03:12:33.960Z,11.67
2018-01-05T03:15:06.165Z,12.07
2018-01-05T03:17:34.448Z,11.57
2018-01-05T03:20:06.499Z,12.90
2018-01-05T03:22:35.476Z,14.73
2018-01-05T03:25:07.076Z,14.70
2018-01-05T03:27:35.347Z,12.50
2018-01-05T03:30:06.751Z,16.87
2018-01-05T03:32:35.030Z,17.17
2018-01-05T03:35:06.427Z,15.60
2018-01-05T03:37:34.833Z,15.03
2018-01-05T03:40:05.838Z,12.10
2018-01-05T03:42:34.106Z,19.80
2018-01-05T03:45:05.576Z,16.33
2018-01-05T03:47:33.876Z,16.13
2018-01-05T03:50:07.364Z,18.53
2018-01-05T03:52:35.641Z,16.03
2018-01-05T03:55:05.587Z,21.33
2018-01-05T03:57:33.853Z,15.70
2018-01-05T04:00:06.015Z,15.97
2018-01-05T04:02:34.331Z,15.93
2018-01-05T04:05:05.744Z,15.50
2018-01-05T04:07:34.056Z,18.03
2018-01-05T04:10:05.652Z,17.90
2018-01-05T04:12:33.946Z,16.17
2018-01-05T04:15:09.301Z,18.73
2018-01-05T04:17:37.577Z,14.50
2018-01-05T04:20:06.408Z,15.77
2018-01-05T04:22:34.717Z,14.43
2018-01-05T04:25:06.764Z,17.03
2018-01-05T04:27:35.264Z,13.47
2018-01-05T04:30:06.868Z,14.23
2018-01-05T04:32:35.213Z,10.07
2018-01-05T04:35:06.446Z,13.67
2018-01-05T04:37:34.960Z,13.70
2018-01-05T04:40:07.008Z,10.77
2018-01-05T04:42:35.278Z,11.27
2018-01-05T04:45:06.492Z,12.47
2018-01-05T04:47:34.761Z,13.07
2018-01-05T04:50:06.693Z,10.97
2018-01-05T04:52:34.997Z,15.73
2018-01-05T04:55:06.628Z,10.73
2018-01-05T04:57:34.956Z,10.90
2018-01-05T05:00:06.545Z,12.37
2018-01-05T05:02:34.841Z,15.13
2018-01-05T05:05:06.343Z,11.40
2018-01-05T05:07:34.789Z,9.60
2018-01-05T05:10:05.669Z,11.37
2018-01-05T05:12:33.957Z,11.30
2018-01-05T05:15:07.809Z,11.17
2018-01-05T05:17:36.096Z,12.80
2018-01-05T05:20:07.565Z,14.60
2018-01-05T05:22:35.862Z,10.17
2018-01-05T05:25:07.096Z,9.47
2018-01-05T05:27:35.476Z,9.93
2018-01-05T05:30:07.640Z,13.30
2018-01-05T05:32:36.408Z,12.00
2018-01-05T05:35:06.563Z,11.90
2018-01-05T05:37:34.859Z,6.83
2018-01-05T05:40:06.628Z,9.10
2018-01-05T05:42:34.907Z,6.43
2018-01-05T05:45:05.740Z,7.17
2018-01-05T05:47:34.033Z,6.87
2018-01-05T05:50:09.049Z,6.37
2018-01-05T05:52:37.537Z,7.17
2018-01-05T05:55:06.009Z,6.37
2018-01-05T05:57:34.390Z,5.10
2018-01-05T06:00:06.558Z,6.90
2018-01-05T06:02:34.856Z,7.57
2018-01-05T06:05:05.880Z,12.77
2018-01-05T06:07:34.469Z,6.00
2018-01-05T06:10:05.983Z,4.43
2018-01-05T06:12:34.447Z,5.07
2018-01-05T06:15:05.728Z,4.87
2018-01-05T06:17:34.009Z,6.20
2018-01-05T06:20:09.340Z,4.87
2018-01-05T06:22:37.636Z,4.00
2018-01-05T06:25:05.942Z,4.23
2018-01-05T06:27:34.218Z,4.53
2018-01-05T06:30:05.583Z,3.30
2018-01-05T06:32:34.244Z,5.37
2018-01-05T06:35:09.386Z,5.13
2018-01-05T06:37:37.669Z,4.43
2018-01-05T06:40:05.939Z,4.20
2018-01-05T06:42:34.221Z,6.30
2018-01-05T06:45:09.332Z,5.47
2018-01-05T06:47:37.607Z,7.40
2018-01-05T06:50:05.924Z,5.23
2018-01-05T06:52:34.192Z,6.47
2018-01-05T06:55:05.526Z,7.30
2018-01-05T06:57:33.889Z,8.93
2018-01-05T07:00:05.682Z,4.10
2018-01-05T07:02:34.042Z,9.90
2018-01-05T07:05:06.184Z,5.47
2018-01-05T07:07:34.485Z,7.50
2018-01-05T07:10:06.450Z,8.17
2018-01-05T07:12:34.723Z,7.40
2018-01-05T07:15:06.426Z,6.77
2018-01-05T07:17:34.722Z,11.47
2018-01-05T07:20:06.021Z,13.67
2018-01-05T07:22:34.322Z,9.63
2018-01-05T07:25:05.670Z,9.07
2018-01-05T07:27:34.847Z,7.73
2018-01-05T07:30:07.025Z,8.13
2018-01-05T07:32:35.322Z,11.83
2018-01-05T07:35:06.803Z,8.30
2018-01-05T07:37:35.089Z,7.87
2018-01-05T07:40:05.831Z,7.87
2018-01-05T07:42:34.102Z,8.80
2018-01-05T07:45:05.557Z,9.20
2018-01-05T07:47:33.894Z,7.73
2018-01-05T07:50:08.906Z,8.80
2018-01-05T07:52:37.168Z,8.53
2018-01-05T07:55:05.820Z,8.53
2018-01-05T07:57:34.088Z,8.77
2018-01-05T08:00:06.243Z,12.17
2018-01-05T08:02:34.703Z,9.50
2018-01-05T08:05:05.964Z,8.50
2018-01-05T08:07:34.235Z,9.83
2018-01-05T08:10:09.412Z,11.97
2018-01-05T08:12:37.752Z,10.23
2018-01-05T08:15:06.019Z,15.93
2018-01-05T08:17:34.318Z,10.13
2018-01-05T08:20:05.665Z,11.80
2018-01-05T08:22:33.957Z,11.33
2018-01-05T08:25:05.312Z,7.47
2018-01-05T08:27:33.617Z,10.70
2018-01-05T08:30:08.270Z,10.20
2018-01-05T08:32:36.609Z,13.47
2018-01-05T08:35:06.441Z,6.57
2018-01-05T08:37:34.945Z,10.23
2018-01-05T08:40:07.093Z,8.20
2018-01-05T08:42:35.382Z,7.80
2018-01-05T08:45:06.832Z,11.27
2018-01-05T08:47:35.149Z,8.83
2018-01-05T08:50:05.904Z,10.57
2018-01-05T08:52:34.165Z,8.13
2018-01-05T08:55:05.548Z,7.93
2018-01-05T08:57:34.102Z,7.70
2018-01-05T09:00:05.650Z,10.43
2018-01-05T09:02:34.323Z,12.00
2018-01-05T09:05:09.422Z,10.03
2018-01-05T09:07:37.701Z,9.97
2018-01-05T09:10:05.987Z,11.00
2018-01-05T09:12:34.260Z,9.07
2018-01-05T09:15:09.299Z,9.03
2018-01-05T09:17:37.735Z,9.13
2018-01-05T09:20:06.010Z,10.17
2018-01-05T09:22:34.393Z,8.57
2018-01-05T09:25:06.145Z,7.87
2018-01-05T09:27:34.430Z,9.60
2018-01-05T09:30:05.734Z,8.33
2018-01-05T09:32:34.033Z,10.47
2018-01-05T09:35:05.492Z,9.60
2018-01-05T09:37:33.770Z,7.70
2018-01-05T09:40:07.081Z,7.07
2018-01-05T09:42:35.345Z,9.20
2018-01-05T09:45:06.661Z,6.63
2018-01-05T09:47:34.932Z,9.50
2018-01-05T09:50:07.073Z,7.93
2018-01-05T09:52:35.336Z,8.07
2018-01-05T09:55:06.680Z,9.27
2018-01-05T09:57:34.975Z,9.10
2018-01-05T10:00:06.506Z,12.60
2018-01-05T10:02:34.774Z,8.93
2018-01-05T10:05:10.578Z,7.87
2018-01-05T10:07:38.852Z,12.50
2018-01-05T10:10:07.151Z,8.17
2018-01-05T10:12:35.655Z,10.10
2018-01-05T10:15:07.776Z,8.00
2018-01-05T10:17:36.053Z,13.30
2018-01-05T10:20:05.924Z,9.40
2018-01-05T10:22:34.233Z,13.90
2018-01-05T10:25:06.276Z,7.60
2018-01-05T10:27:34.971Z,11.03
2018-01-05T10:30:07.071Z,9.77
2018-01-05T10:32:35.360Z,9.73
2018-01-05T10:35:06.645Z,7.10
2018-01-05T10:37:34.953Z,9.43
2018-01-05T10:40:06.938Z,10.93
2018-01-05T10:42:35.237Z,6.23
2018-01-05T10:45:05.958Z,9.60
2018-01-05T10:47:34.255Z,8.23
2018-01-05T10:50:08.288Z,8.10
2018-01-05T10:52:36.557Z,10.40
2018-01-05T10:55:06.472Z,8.03
2018-01-05T10:57:34.721Z,8.53
2018-01-05T11:00:08.674Z,8.80
2018-01-05T11:02:37.083Z,10.70
2018-01-05T11:05:06.268Z,11.17
2018-01-05T11:07:34.564Z,11.00
2018-01-05T11:10:06.275Z,11.03
2018-01-05T11:12:34.577Z,9.17
2018-01-05T11:15:08.740Z,11.10
2018-01-05T11:17:43.029Z,9.70
2018-01-05T11:20:17.902Z,10.07
2018-01-05T11:22:52.032Z,7.83
2018-01-05T11:25:20.313Z,10.27
2018-01-05T11:27:48.593Z,8.37
2018-01-05T11:30:17.057Z,8.63
2018-01-05T11:32:45.620Z,10.40
2018-01-05T11:35:13.954Z,10.53
2018-01-05T11:37:42.248Z,9.53
2018-01-05T11:40:10.544Z,8.97
2018-01-05T11:42:38.840Z,10.37
2018-01-05T11:45:07.116Z,8.87
2018-01-05T11:47:35.938Z,8.80
2018-01-05T11:50:07.552Z,9.13
2018-01-05T11:52:35.817Z,7.97
2018-01-05T11:55:08.152Z,8.67
2018-01-05T11:57:36.434Z,9.20
2018-01-05T12:00:06.359Z,10.03
2018-01-05T12:02:34.625Z,9.73
2018-01-05T12:05:08.573Z,8.20
2018-01-05T12:07:36.852Z,9.60
2018-01-05T12:10:07.070Z,11.97
2018-01-05T12:12:35.352Z,10.03
2018-01-05T12:15:06.965Z,16.40
2018-01-05T12:17:35.262Z,10.33
2018-01-05T12:20:07.532Z,13.17
2018-01-05T12:22:35.838Z,9.13
2018-01-05T12:25:07.980Z,8.17
2018-01-05T12:27:36.260Z,11.40
2018-01-05T12:30:07.465Z,11.70
2018-01-05T12:32:35.766Z,11.30
2018-01-05T12:35:06.988Z,15.27
2018-01-05T12:37:35.278Z,13.60
2018-01-05T12:40:06.086Z,13.87
2018-01-05T12:42:34.358Z,13.97
2018-01-05T12:45:08.415Z,11.90
2018-01-05T12:47:36.689Z,18.57
2018-01-05T12:50:06.459Z,13.27
2018-01-05T12:52:34.701Z,14.03
2018-01-05T12:55:08.664Z,13.67
2018-01-05T12:57:36.965Z,14.97
2018-01-05T13:00:06.500Z,13.17
2018-01-05T13:02:35.047Z,14.93
2018-01-05T13:05:07.456Z,13.77
2018-01-05T13:07:36.129Z,14.77
2018-01-05T13:10:07.862Z,15.33
2018-01-05T13:12:36.138Z,17.33
2018-01-05T13:15:09.777Z,13.93
2018-01-05T13:17:38.049Z,15.33
2018-01-05T13:20:06.349Z,16.17
2018-01-05T13:22:34.659Z,15.23
2018-01-05T13:25:06.153Z,13.00
2018-01-05T13:27:34.433Z,13.23
2018-01-05T13:30:07.178Z,13.50
2018-01-05T13:32:35.685Z,15.57
2018-01-05T13:35:07.718Z,14.23
2018-01-05T13:37:36.053Z,14.60
2018-01-05T13:40:07.900Z,16.63
2018-01-05T13:42:36.970Z,21.87
2018-01-05T13:45:06.885Z,38.73
2018-01-05T13:47:35.177Z,14.63
2018-01-05T13:50:07.331Z,11.80
2018-01-05T13:52:36.164Z,13.90
2018-01-05T13:55:07.814Z,12.63
2018-01-05T13:57:36.495Z,12.13
2018-01-05T14:00:06.572Z,16.90
2018-01-05T14:02:34.847Z,13.43
2018-01-05T14:05:06.972Z,13.73
2018-01-05T14:07:35.396Z,13.23
2018-01-05T14:10:07.448Z,14.20
2018-01-05T14:12:35.724Z,11.73
2018-01-05T14:15:07.623Z,14.03
2018-01-05T14:17:35.909Z,12.60
2018-01-05T14:20:07.227Z,13.80
2018-01-05T14:22:35.522Z,12.50
2018-01-05T14:25:06.220Z,14.53
2018-01-05T14:27:34.522Z,14.50
2018-01-05T14:30:09.796Z,13.30
2018-01-05T14:32:38.139Z,13.97
2018-01-05T14:35:06.503Z,12.63
2018-01-05T14:37:34.776Z,16.63
2018-01-05T14:40:06.513Z,11.77
2018-01-05T14:42:35.152Z,13.80
2018-01-05T14:45:07.184Z,11.50
2018-01-05T14:47:35.486Z,9.13
2018-01-05T14:50:06.282Z,15.20
2018-01-05T14:52:34.618Z,11.37
2018-01-05T14:55:06.099Z,17.17
2018-01-05T14:57:34.384Z,12.63
2018-01-05T15:00:09.417Z,11.20
2018-01-05T15:02:37.789Z,12.27
2018-01-05T15:05:07.085Z,15.63
2018-01-05T15:07:35.678Z,14.63
2018-01-05T15:10:07.030Z,17.17
2018-01-05T15:12:35.366Z,13.37
2018-01-05T15:15:07.453Z,15.77
2018-01-05T15:17:35.744Z,13.00
2018-01-05T15:20:08.381Z,13.13
2018-01-05T15:22:36.696Z,21.50
2018-01-05T15:25:08.343Z,17.10
2018-01-05T15:27:36.634Z,11.43
2018-01-05T15:30:07.911Z,11.90
2018-01-05T15:32:36.420Z,11.77
2018-01-05T15:35:06.412Z,11.67
2018-01-05T15:37:34.686Z,13.53
2018-01-05T15:40:09.839Z,10.43
2018-01-05T15:42:38.122Z,10.33
2018-01-05T15:45:06.425Z,11.00
2018-01-05T15:47:34.711Z,13.30
2018-01-05T15:50:06.130Z,8.73
2018-01-05T15:52:34.442Z,8.80
2018-01-05T15:55:05.872Z,13.57
2018-01-05T15:57:34.381Z,9.53
2018-01-05T16:00:09.357Z,9.20
2018-01-05T16:02:37.656Z,10.03
2018-01-05T16:05:06.660Z,9.30
2018-01-05T16:07:34.971Z,9.83
2018-01-05T16:10:07.098Z,12.53
2018-01-05T16:12:35.480Z,10.13
2018-01-05T16:15:06.510Z,9.40
2018-01-05T16:17:34.804Z,13.67
2018-01-05T16:20:09.817Z,9.87
2018-01-05T16:22:38.143Z,11.03
2018-01-05T16:25:06.435Z,11.40
2018-01-05T16:27:34.707Z,9.73
2018-01-05T16:30:09.729Z,12.03
2018-01-05T16:32:38.782Z,10.80
2018-01-05T16:35:07.084Z,8.03
2018-01-05T16:37:35.362Z,10.43
2018-01-05T16:40:06.332Z,10.67
2018-01-05T16:42:34.638Z,8.37
2018-01-05T16:45:05.988Z,9.60
2018-01-05T16:47:34.481Z,8.40
2018-01-05T16:50:09.519Z,10.10
2018-01-05T16:52:37.798Z,10.00
2018-01-05T16:55:06.422Z,11.30
2018-01-05T16:57:34.709Z,12.17
2018-01-05T17:00:07.317Z,10.43
2018-01-05T17:02:36.351Z,13.13
2018-01-05T17:05:07.905Z,9.37
2018-01-05T17:07:36.177Z,10.37
2018-01-05T17:10:07.526Z,11.73
2018-01-05T17:12:35.831Z,12.63
2018-01-05T17:15:06.363Z,11.20
2018-01-05T17:17:34.641Z,12.63
2018-01-05T17:20:06.097Z,11.40
2018-01-05T17:22:34.417Z,11.93
2018-01-05T17:25:06.668Z,12.00
2018-01-05T17:27:35.577Z,10.13
2018-01-05T17:30:07.826Z,14.03
2018-01-05T17:32:36.104Z,11.00
2018-01-05T17:35:08.165Z,12.13
2018-01-05T17:37:36.724Z,9.23
2018-01-05T17:40:06.611Z,15.37
2018-01-05T17:42:34.913Z,11.43
2018-01-05T17:45:10.050Z,14.17
2018-01-05T17:47:38.345Z,9.77
2018-01-05T17:50:06.705Z,10.53
2018-01-05T17:52:35.153Z,12.03
2018-01-05T17:55:09.325Z,13.37
2018-01-05T17:57:37.644Z,10.07
2018-01-05T18:00:06.729Z,13.47
2018-01-05T18:02:34.998Z,10.93
2018-01-05T18:05:06.330Z,10.63
2018-01-05T18:07:34.625Z,12.47
2018-01-05T18:10:07.187Z,9.40
2018-01-05T18:12:35.453Z,13.00
2018-01-05T18:15:06.507Z,9.87
2018-01-05T18:17:34.770Z,13.53
2018-01-05T18:20:08.100Z,12.03
2018-01-05T18:22:36.361Z,9.07
2018-01-05T18:25:08.097Z,14.33
2018-01-05T18:27:36.377Z,12.90
2018-01-05T18:30:07.856Z,11.93
2018-01-05T18:32:36.168Z,10.87
2018-01-05T18:35:07.495Z,11.73
2018-01-05T18:37:36.238Z,12.27
2018-01-05T18:40:08.168Z,11.03
2018-01-05T18:42:36.604Z,11.13
2018-01-05T18:45:06.639Z,10.83
2018-01-05T18:47:34.930Z,14.23
2018-01-05T18:50:06.493Z,14.70
2018-01-05T18:52:34.764Z,11.67
2018-01-05T18:55:06.419Z,13.57
2018-01-05T18:57:34.693Z,9.97
2018-01-05T19:00:09.132Z,12.70
2018-01-05T19:02:37.405Z,12.27
2018-01-05T19:05:06.946Z,11.37
2018-01-05T19:07:52.909Z,16.33
2018-01-05T19:10:21.211Z,13.50
2018-01-05T19:12:49.495Z,10.97
2018-01-05T19:15:17.797Z,11.37
2018-01-05T19:17:46.130Z,13.83
2018-01-05T19:20:14.441Z,16.80
2018-01-05T19:22:43.682Z,13.00
2018-01-05T19:25:12.766Z,12.63
2018-01-05T19:27:41.060Z,15.20
2018-01-05T19:30:09.353Z,15.20
2018-01-05T19:32:37.650Z,20.27
2018-01-05T19:35:05.938Z,16.73
2018-01-05T19:37:34.215Z,20.30
2018-01-05T19:40:05.929Z,15.20
2018-01-05T19:42:34.212Z,17.87
2018-01-05T19:45:05.766Z,16.70
2018-01-05T19:47:34.063Z,14.13
2018-01-05T19:50:09.050Z,12.03
2018-01-05T19:52:37.336Z,12.87
2018-01-05T19:55:05.716Z,11.50
2018-01-05T19:57:37.948Z,15.03
2018-01-05T20:00:06.260Z,8.67
2018-01-05T20:02:35.018Z,13.13
2018-01-05T20:05:06.625Z,15.37
2018-01-05T20:07:34.893Z,20.37
2018-01-05T20:10:06.898Z,15.00
2018-01-05T20:12:35.181Z,13.00
2018-01-05T20:15:07.299Z,12.37
2018-01-05T20:17:35.694Z,14.60
2018-01-05T20:20:05.810Z,11.73
2018-01-05T20:22:34.105Z,15.00
2018-01-05T20:25:05.846Z,12.57
2018-01-05T20:27:34.289Z,10.07
2018-01-05T20:30:04.282Z,11.77
2018-01-05T20:32:32.636Z,12.77
2018-01-05T20:35:04.475Z,8.30
2018-01-05T20:37:32.802Z,8.13
2018-01-05T20:40:05.617Z,7.30
2018-01-05T20:42:37.958Z,6.93
2018-01-05T20:45:06.337Z,8.13
2018-01-05T20:47:34.616Z,6.50
2018-01-05T20:50:06.360Z,4.27
2018-01-05T20:52:34.636Z,5.23
2018-01-05T20:55:05.813Z,5.73
2018-01-05T20:57:34.286Z,4.20
2018-01-05T21:00:09.838Z,5.53
2018-01-05T21:02:38.145Z,3.97
2018-01-05T21:05:10.498Z,5.53
2018-01-05T21:07:38.803Z,4.40
2018-01-05T21:10:07.087Z,4.57
2018-01-05T21:12:35.398Z,5.00
2018-01-05T21:15:06.568Z,3.70
2018-01-05T21:17:34.856Z,4.60
2018-01-05T21:20:06.037Z,5.17
2018-01-05T21:22:34.750Z,5.50
2018-01-05T21:25:06.519Z,5.37
2018-01-05T21:27:34.802Z,4.27
2018-01-05T21:30:07.372Z,4.10
2018-01-05T21:32:35.645Z,4.40
2018-01-05T21:35:07.308Z,4.43
2018-01-05T21:37:35.916Z,6.97
2018-01-05T21:40:08.965Z,4.97
2018-01-05T21:42:37.252Z,4.67
2018-01-05T21:45:05.894Z,4.73
2018-01-05T21:47:34.172Z,4.50
2018-01-05T21:50:05.787Z,4.53
2018-01-05T21:52:34.078Z,2.40
2018-01-05T21:55:05.532Z,6.20
2018-01-05T21:57:33.819Z,5.13
2018-01-05T22:00:05.705Z,5.93
2018-01-05T22:02:34.252Z,5.17
2018-01-05T22:05:05.896Z,5.30
2018-01-05T22:07:34.295Z,3.63
2018-01-05T22:10:09.449Z,4.00
2018-01-05T22:12:37.761Z,3.80
2018-01-05T22:15:06.069Z,4.93
2018-01-05T22:17:38.160Z,8.60
2018-01-05T22:20:06.467Z,4.13
2018-01-05T22:22:34.773Z,4.23
2018-01-05T22:25:06.780Z,5.40
2018-01-05T22:27:35.370Z,5.83
2018-01-05T22:30:07.290Z,6.87
2018-01-05T22:32:35.571Z,4.13
2018-01-05T22:35:06.893Z,4.90
2018-01-05T22:37:35.197Z,5.20
2018-01-05T22:40:07.094Z,7.37
2018-01-05T22:42:35.391Z,3.80
2018-01-05T22:45:07.106Z,4.43
2018-01-05T22:47:35.773Z,4.87
2018-01-05T22:50:07.359Z,5.10
2018-01-05T22:52:35.706Z,4.63
2018-01-05T22:55:07.219Z,5.93
2018-01-05T22:57:35.540Z,7.33
2018-01-05T23:00:07.142Z,3.67
2018-01-05T23:02:35.433Z,4.53
2018-01-05T23:05:07.517Z,5.33
2018-01-05T23:07:35.813Z,6.27
2018-01-05T23:10:06.548Z,5.60
2018-01-05T23:12:34.847Z,6.03
2018-01-05T23:15:08.957Z,6.60
2018-01-05T23:17:37.233Z,5.00
2018-01-05T23:20:06.913Z,6.40
2018-01-05T23:22:35.190Z,6.33
2018-01-05T23:25:06.528Z,5.80
2018-01-05T23:27:34.799Z,5.20
2018-01-05T23:30:06.251Z,3.77
2018-01-05T23:32:34.529Z,6.70
2018-01-05T23:35:06.026Z,5.30
2018-01-05T23:37:34.300Z,5.37
2018-01-05T23:40:05.816Z,4.80
2018-01-05T23:42:34.128Z,3.20
2018-01-05T23:45:07.792Z,6.17
2018-01-05T23:47:36.104Z,3.33
2018-01-05T23:50:07.609Z,4.67
2018-01-05T23:52:35.890Z,4.57
2018-01-05T23:55:07.967Z,8.20
2018-01-05T23:57:36.407Z,4.27
